createdAt,value
2018-04-07T00:01:16.025Z,100768.89
2018-04-07T00:03:44.417Z,100767.16
2018-04-07T00:06:12.827Z,100772.69
2018-04-07T00:08:41.996Z,100765.33
2018-04-07T00:11:10.403Z,100768.89
2018-04-07T00:13:38.801Z,100769.37
2018-04-07T00:16:07.955Z,100759.75
2018-04-07T00:18:36.400Z,100772.26
2018-04-07T00:21:04.868Z,100773.56
2018-04-07T00:23:34.040Z,100777.66
2018-04-07T00:26:02.468Z,100784.36
2018-04-07T00:28:30.919Z,100779.96
2018-04-07T00:31:00.115Z,100782.03
2018-04-07T00:33:29.274Z,100789.24
2018-04-07T00:35:57.713Z,100783.23
2018-04-07T00:38:26.940Z,100775.76
2018-04-07T00:40:55.380Z,100772.95
2018-04-07T00:43:23.825Z,100763.90
2018-04-07T00:45:52.203Z,100765.80
2018-04-07T00:48:20.636Z,100763.67
2018-04-07T00:50:49.808Z,100757.84
2018-04-07T00:53:18.238Z,100756.70
2018-04-07T00:55:46.646Z,100752.75
2018-04-07T00:58:15.038Z,100747.45
2018-04-07T01:00:43.505Z,100741.71
2018-04-07T01:03:11.931Z,100739.75
2018-04-07T01:05:41.217Z,100725.85
2018-04-07T01:08:09.626Z,100722.00
2018-04-07T01:10:38.015Z,100722.81
2018-04-07T01:13:06.411Z,100731.97
2018-04-07T01:15:34.827Z,100728.39
2018-04-07T01:18:03.223Z,100719.74
2018-04-07T01:20:31.633Z,100721.91
2018-04-07T01:23:00.813Z,100719.34
2018-04-07T01:25:29.209Z,100720.23
2018-04-07T01:27:58.371Z,100724.50
2018-04-07T01:30:26.772Z,100732.82
2018-04-07T01:32:55.191Z,100739.70
2018-04-07T01:35:23.576Z,100735.17
2018-04-07T01:37:51.997Z,100727.80
2018-04-07T01:40:20.407Z,100730.89
2018-04-07T01:42:50.302Z,100733.88
2018-04-07T01:45:18.703Z,100738.31
2018-04-07T01:47:47.168Z,100746.28
2018-04-07T01:50:15.574Z,100739.97
2018-04-07T01:52:44.942Z,100735.70
2018-04-07T01:55:13.519Z,100734.23
2018-04-07T01:57:41.951Z,100729.85
2018-04-07T02:00:11.127Z,100727.80
2018-04-07T02:02:39.619Z,100718.27
2018-04-07T02:05:08.795Z,100718.70
2018-04-07T02:07:37.191Z,100715.68
2018-04-07T02:10:05.575Z,100721.30
2018-04-07T02:12:34.088Z,100729.03
2018-04-07T02:15:02.464Z,100727.73
2018-04-07T02:17:30.854Z,100727.56
2018-04-07T02:19:59.243Z,100727.50
2018-04-07T02:22:27.643Z,100722.36
2018-04-07T02:24:56.051Z,100728.84
2018-04-07T02:27:24.452Z,100721.29
2018-04-07T02:29:53.628Z,100718.03
2018-04-07T02:32:22.066Z,100714.45
2018-04-07T02:34:50.461Z,100710.84
2018-04-07T02:37:18.886Z,100708.18
2018-04-07T02:39:47.288Z,100707.17
2018-04-07T02:42:16.436Z,100708.31
2018-04-07T02:44:44.857Z,100697.25
2018-04-07T02:47:13.252Z,100694.72
2018-04-07T02:49:42.426Z,100692.93
2018-04-07T02:52:10.802Z,100691.63
2018-04-07T02:54:39.986Z,100691.89
2018-04-07T02:57:08.395Z,100682.36
2018-04-07T02:59:36.795Z,100687.49
2018-04-07T03:02:05.212Z,100689.30
2018-04-07T03:04:33.614Z,100690.40
2018-04-07T03:07:02.038Z,100688.46
2018-04-07T03:09:31.967Z,100687.21
2018-04-07T03:12:00.378Z,100688.32
2018-04-07T03:14:28.754Z,100689.63
2018-04-07T03:16:57.271Z,100692.07
2018-04-07T03:19:25.730Z,100694.86
2018-04-07T03:21:54.118Z,100693.52
2018-04-07T03:24:22.525Z,100693.13
2018-04-07T03:26:50.940Z,100683.64
2018-04-07T03:29:19.461Z,100694.87
2018-04-07T03:31:47.860Z,100695.81
2018-04-07T03:34:16.361Z,100691.00
2018-04-07T03:36:44.743Z,100691.22
2018-04-07T03:39:13.130Z,100695.75
2018-04-07T03:41:42.277Z,100691.00
2018-04-07T03:44:10.670Z,100694.53
2018-04-07T03:46:39.231Z,100692.57
2018-04-07T03:49:07.624Z,100682.36
2018-04-07T03:51:35.999Z,100691.72
2018-04-07T03:54:04.385Z,100689.05
2018-04-07T03:56:32.784Z,100687.77
2018-04-07T03:59:01.192Z,100687.25
2018-04-07T04:01:30.359Z,100687.41
2018-04-07T04:03:58.773Z,100692.29
2018-04-07T04:06:27.409Z,100695.76
2018-04-07T04:08:55.852Z,100696.55
2018-04-07T04:11:25.224Z,100697.27
2018-04-07T04:13:53.598Z,100691.93
2018-04-07T04:16:22.099Z,100693.23
2018-04-07T04:18:50.499Z,100680.69
2018-04-07T04:21:18.874Z,100675.16
2018-04-07T04:23:47.259Z,100664.88
2018-04-07T04:26:15.643Z,100664.45
2018-04-07T04:28:44.019Z,100661.34
2018-04-07T04:31:12.512Z,100666.88
2018-04-07T04:33:41.656Z,100671.20
2018-04-07T04:36:10.037Z,100668.62
2018-04-07T04:38:38.428Z,100670.90
2018-04-07T04:41:06.808Z,100665.35
2018-04-07T04:43:35.201Z,100664.06
2018-04-07T04:46:03.635Z,100667.53
2018-04-07T04:48:32.018Z,100658.36
2018-04-07T04:51:00.441Z,100664.86
2018-04-07T04:53:28.831Z,100662.39
2018-04-07T04:55:57.231Z,100661.47
2018-04-07T04:58:26.395Z,100660.63
2018-04-07T05:00:54.758Z,100667.02
2018-04-07T05:03:23.140Z,100662.62
2018-04-07T05:05:51.535Z,100665.13
2018-04-07T05:08:19.916Z,100664.84
2018-04-07T05:10:48.301Z,100659.95
2018-04-07T05:13:16.764Z,100667.58
2018-04-07T05:15:45.168Z,100660.11
2018-04-07T05:18:13.557Z,100650.19
2018-04-07T05:20:41.950Z,100657.59
2018-04-07T05:23:10.340Z,100655.16
2018-04-07T05:25:38.740Z,100656.58
2018-04-07T05:28:07.930Z,100659.17
2018-04-07T05:30:37.151Z,100659.89
2018-04-07T05:33:05.668Z,100658.83
2018-04-07T05:35:34.082Z,100655.83
2018-04-07T05:38:02.462Z,100664.45
2018-04-07T05:40:31.008Z,100667.98
2018-04-07T05:42:59.384Z,100671.13
2018-04-07T05:45:27.807Z,100668.25
2018-04-07T05:47:56.200Z,100670.44
2018-04-07T05:50:25.519Z,100665.52
2018-04-07T05:52:53.912Z,100670.98
2018-04-07T05:55:22.537Z,100658.69
2018-04-07T05:57:50.999Z,100656.70
2018-04-07T06:00:19.652Z,100654.05
2018-04-07T06:02:48.847Z,100654.84
2018-04-07T06:05:18.896Z,100663.51
2018-04-07T06:07:47.331Z,100659.02
2018-04-07T06:10:16.024Z,100664.11
2018-04-07T06:12:45.534Z,100664.80
2018-04-07T06:15:13.963Z,100663.25
2018-04-07T06:17:42.337Z,100669.47
2018-04-07T06:20:10.741Z,100665.81
2018-04-07T06:22:39.115Z,100665.41
2018-04-07T06:25:07.532Z,100668.91
2018-04-07T06:27:36.124Z,100664.73
2018-04-07T06:30:05.333Z,100666.90
2018-04-07T06:32:34.791Z,100666.89
2018-04-07T06:35:04.023Z,100662.98
2018-04-07T06:37:33.895Z,100666.91
2018-04-07T06:40:02.291Z,100665.16
2018-04-07T06:42:30.707Z,100665.95
2018-04-07T06:45:02.847Z,100668.57
2018-04-07T06:47:33.282Z,100661.47
2018-04-07T06:50:01.935Z,100654.66
2018-04-07T06:52:30.311Z,100656.37
2018-04-07T06:54:58.747Z,100655.64
2018-04-07T06:57:27.292Z,100652.27
2018-04-07T06:59:55.714Z,100648.47
2018-04-07T07:02:24.099Z,100653.19
2018-04-07T07:04:52.522Z,100653.51
2018-04-07T07:07:20.902Z,100643.42
2018-04-07T07:09:49.947Z,100648.16
2018-04-07T07:12:18.397Z,100644.48
2018-04-07T07:14:46.806Z,100644.13
2018-04-07T07:17:16.000Z,100640.40
2018-04-07T07:19:44.408Z,100646.74
2018-04-07T07:22:13.672Z,100640.98
2018-04-07T07:24:42.878Z,100646.03
2018-04-07T07:27:11.273Z,100645.12
2018-04-07T07:29:39.676Z,100647.64
2018-04-07T07:32:08.849Z,100638.35
2018-04-07T07:34:37.236Z,100636.14
2018-04-07T07:37:05.654Z,100644.62
2018-04-07T07:39:34.245Z,100647.22
2018-04-07T07:42:02.849Z,100640.75
2018-04-07T07:44:31.217Z,100640.34
2018-04-07T07:46:59.619Z,100649.08
2018-04-07T07:49:28.008Z,100633.30
2018-04-07T07:51:56.400Z,100650.52
2018-04-07T07:54:24.774Z,100639.22
2018-04-07T07:56:53.161Z,100645.56
2018-04-07T07:59:21.562Z,100643.18
2018-04-07T08:01:50.724Z,100641.71
2018-04-07T08:04:19.127Z,100638.55
2018-04-07T08:06:47.506Z,100639.12
2018-04-07T08:09:15.903Z,100635.09
2018-04-07T08:11:45.079Z,100635.49
2018-04-07T08:14:13.471Z,100634.23
2018-04-07T08:16:42.635Z,100643.13
2018-04-07T08:19:11.021Z,100639.24
2018-04-07T08:21:39.410Z,100643.43
2018-04-07T08:24:07.796Z,100631.75
2018-04-07T08:26:36.242Z,100631.94
2018-04-07T08:29:04.654Z,100626.98
2018-04-07T08:31:33.065Z,100622.72
2018-04-07T08:34:02.216Z,100627.00
2018-04-07T08:36:30.624Z,100632.19
2018-04-07T08:38:59.003Z,100635.41
2018-04-07T08:41:27.403Z,100637.60
2018-04-07T08:43:55.907Z,100633.31
2018-04-07T08:46:24.276Z,100637.31
2018-04-07T08:48:52.738Z,100633.57
2018-04-07T08:51:21.122Z,100625.20
2018-04-07T08:53:49.544Z,100630.98
2018-04-07T08:56:18.676Z,100633.08
2018-04-07T08:58:47.127Z,100638.10
2018-04-07T09:01:15.611Z,100638.36
2018-04-07T09:03:44.865Z,100633.73
2018-04-07T09:06:13.266Z,100638.56
2018-04-07T09:08:41.696Z,100634.42
2018-04-07T09:11:10.123Z,100632.09
2018-04-07T09:13:38.500Z,100630.09
2018-04-07T09:16:06.908Z,100614.22
2018-04-07T09:18:36.214Z,100620.70
2018-04-07T09:21:05.388Z,100614.49
2018-04-07T09:23:33.800Z,100610.92
2018-04-07T09:26:02.991Z,100605.39
2018-04-07T09:28:32.273Z,100594.31
2018-04-07T09:31:06.050Z,100590.89
2018-04-07T09:33:34.526Z,100589.95
2018-04-07T09:36:02.947Z,100592.27
2018-04-07T09:38:31.393Z,100599.03
2018-04-07T09:40:59.773Z,100605.91
2018-04-07T09:43:28.256Z,100601.80
2018-04-07T09:45:56.747Z,100594.80
2018-04-07T09:48:25.157Z,100589.17
2018-04-07T09:50:53.707Z,100589.88
2018-04-07T09:53:22.909Z,100597.53
2018-04-07T09:55:51.359Z,100589.30
2018-04-07T09:58:20.581Z,100584.03
2018-04-07T10:00:49.015Z,100585.77
2018-04-07T10:03:22.244Z,100588.77
2018-04-07T10:05:51.885Z,100586.67
2018-04-07T10:08:20.330Z,100582.43
2018-04-07T10:10:49.659Z,100579.11
2018-04-07T10:13:18.045Z,100585.09
2018-04-07T10:15:46.457Z,100571.40
2018-04-07T10:18:14.889Z,100576.80
2018-04-07T10:20:44.055Z,100575.80
2018-04-07T10:23:12.450Z,100571.91
2018-04-07T10:25:40.846Z,100558.61
2018-04-07T10:28:10.102Z,100559.40
2018-04-07T10:30:39.354Z,100561.12
2018-04-07T10:33:08.495Z,100560.19
2018-04-07T10:35:37.086Z,100564.97
2018-04-07T10:38:05.497Z,100563.03
2018-04-07T10:40:33.893Z,100556.64
2018-04-07T10:43:03.059Z,100552.08
2018-04-07T10:45:31.496Z,100552.98
2018-04-07T10:47:59.899Z,100554.42
2018-04-07T10:50:28.420Z,100550.66
2018-04-07T10:52:57.611Z,100541.73
2018-04-07T10:55:26.028Z,100543.45
2018-04-07T10:57:55.196Z,100538.91
2018-04-07T11:00:23.586Z,100534.20
2018-04-07T11:02:52.025Z,100529.69
2018-04-07T11:05:20.448Z,100534.31
2018-04-07T11:07:48.870Z,100528.68
2018-04-07T11:10:18.039Z,100534.34
2018-04-07T11:12:46.499Z,100532.91
2018-04-07T11:15:14.869Z,100527.29
2018-04-07T11:17:43.294Z,100522.08
2018-04-07T11:20:11.669Z,100521.97
2018-04-07T11:22:40.722Z,100523.01
2018-04-07T11:25:09.868Z,100519.40
2018-04-07T11:27:39.042Z,100523.16
2018-04-07T11:30:07.438Z,100521.34
2018-04-07T11:32:35.873Z,100525.12
2018-04-07T11:35:04.263Z,100519.14
2018-04-07T11:37:32.655Z,100513.10
2018-04-07T11:40:01.130Z,100509.09
2018-04-07T11:42:29.594Z,100508.34
2018-04-07T11:44:58.010Z,100505.11
2018-04-07T11:47:26.406Z,100505.63
2018-04-07T11:49:54.847Z,100508.92
2018-04-07T11:52:23.302Z,100498.66
2018-04-07T11:54:51.679Z,100502.44
2018-04-07T11:57:20.861Z,100494.73
2018-04-07T11:59:49.259Z,100493.83
2018-04-07T12:02:17.742Z,100492.70
2018-04-07T12:04:46.099Z,100493.50
2018-04-07T12:07:14.474Z,100493.89
2018-04-07T12:09:42.902Z,100488.27
2018-04-07T12:12:12.064Z,100480.36
2018-04-07T12:14:40.465Z,100496.56
2018-04-07T12:17:08.856Z,100486.00
2018-04-07T12:19:37.262Z,100473.43
2018-04-07T12:22:05.666Z,100469.22
2018-04-07T12:24:34.051Z,100470.22
2018-04-07T12:27:02.496Z,100457.72
2018-04-07T12:29:31.726Z,100458.73
2018-04-07T12:32:00.113Z,100449.37
2018-04-07T12:34:28.706Z,100452.05
2018-04-07T12:36:57.111Z,100455.95
2018-04-07T12:39:25.580Z,100456.41
2018-04-07T12:41:54.112Z,100448.84
2018-04-07T12:44:23.360Z,100458.44
2018-04-07T12:46:52.052Z,100443.03
2018-04-07T12:49:20.447Z,100441.04
2018-04-07T12:51:48.827Z,100430.47
2018-04-07T12:54:17.233Z,100434.56
2018-04-07T12:56:46.011Z,100425.59
2018-04-07T12:59:14.464Z,100425.24
2018-04-07T13:01:42.852Z,100423.52
2018-04-07T13:04:11.254Z,100418.41
2018-04-07T13:06:39.643Z,100413.78
2018-04-07T13:09:08.103Z,100405.34
2018-04-07T13:11:36.599Z,100396.95
2018-04-07T13:14:05.025Z,100404.83
2018-04-07T13:16:34.180Z,100395.47
2018-04-07T13:19:02.632Z,100391.33
2018-04-07T13:21:31.074Z,100388.83
2018-04-07T13:23:59.514Z,100391.67
2018-04-07T13:26:27.923Z,100389.63
2018-04-07T13:28:56.340Z,100379.70
2018-04-07T13:31:24.801Z,100375.29
2018-04-07T13:33:54.155Z,100365.80
2018-04-07T13:36:22.680Z,100361.25
2018-04-07T13:38:51.070Z,100356.27
2018-04-07T13:41:19.486Z,100351.52
2018-04-07T13:43:48.759Z,100347.08
2018-04-07T13:46:17.146Z,100346.47
2018-04-07T13:48:45.562Z,100343.38
2018-04-07T13:51:13.978Z,100343.66
2018-04-07T13:53:42.372Z,100341.50
2018-04-07T13:56:10.788Z,100338.57
2018-04-07T13:58:39.215Z,100343.70
2018-04-07T14:01:07.675Z,100341.04
2018-04-07T14:03:36.075Z,100336.73
2018-04-07T14:06:05.241Z,100332.94
2018-04-07T14:08:33.672Z,100330.39
2018-04-07T14:11:02.064Z,100321.33
2018-04-07T14:13:30.492Z,100328.51
2018-04-07T14:15:58.917Z,100319.47
2018-04-07T14:18:27.381Z,100319.74
2018-04-07T14:20:55.811Z,100309.98
2018-04-07T14:23:24.971Z,100301.23
2018-04-07T14:25:53.371Z,100306.13
2018-04-07T14:28:21.774Z,100299.51
2018-04-07T14:30:50.188Z,100299.90
2018-04-07T14:33:19.373Z,100304.00
2018-04-07T14:35:47.775Z,100295.92
2018-04-07T14:38:16.204Z,100289.75
2018-04-07T14:40:44.635Z,100288.78
2018-04-07T14:43:13.109Z,100293.80
2018-04-07T14:45:42.271Z,100293.66
2018-04-07T14:48:10.694Z,100288.00
2018-04-07T14:50:39.850Z,100285.51
2018-04-07T14:53:08.279Z,100279.23
2018-04-07T14:55:37.443Z,100282.22
2018-04-07T14:58:05.827Z,100285.81
2018-04-07T15:00:34.330Z,100281.47
2018-04-07T15:03:03.470Z,100286.99
2018-04-07T15:05:31.858Z,100281.59
2018-04-07T15:08:00.248Z,100274.57
2018-04-07T15:10:28.644Z,100273.89
2018-04-07T15:12:57.070Z,100274.45
2018-04-07T15:15:26.268Z,100272.82
2018-04-07T15:17:55.448Z,100275.04
2018-04-07T15:20:23.839Z,100274.44
2018-04-07T15:22:53.011Z,100276.39
2018-04-07T15:25:21.464Z,100268.93
2018-04-07T15:27:49.878Z,100265.15
2018-04-07T15:30:19.217Z,100263.66
2018-04-07T15:32:47.600Z,100263.08
2018-04-07T15:35:15.990Z,100260.73
2018-04-07T15:37:45.147Z,100266.41
2018-04-07T15:40:13.531Z,100268.50
2018-04-07T15:42:41.900Z,100268.06
2018-04-07T15:45:10.270Z,100263.84
2018-04-07T15:50:14.015Z,100256.13
2018-04-07T15:52:42.448Z,100259.25
2018-04-07T15:55:11.608Z,100263.05
2018-04-07T15:57:39.992Z,100259.58
2018-04-07T16:00:08.358Z,100261.16
2018-04-07T16:02:36.795Z,100262.85
2018-04-07T16:05:05.208Z,100251.52
2018-04-07T16:07:33.676Z,100253.22
2018-04-07T16:10:02.100Z,100245.73
2018-04-07T16:12:30.482Z,100245.20
2018-04-07T16:14:58.920Z,100245.65
2018-04-07T16:17:27.417Z,100254.61
2018-04-07T16:19:55.812Z,100248.72
2018-04-07T16:22:24.245Z,100246.62
2018-04-07T16:24:52.628Z,100249.17
2018-04-07T16:27:21.962Z,100240.67
2018-04-07T16:29:50.363Z,100248.13
2018-04-07T16:32:18.764Z,100246.50
2018-04-07T16:34:47.175Z,100247.23
2018-04-07T16:37:15.831Z,100243.13
2018-04-07T16:39:44.235Z,100246.42
2018-04-07T16:42:12.633Z,100246.01
2018-04-07T16:44:41.819Z,100241.27
2018-04-07T16:47:10.214Z,100235.65
2018-04-07T16:49:38.605Z,100237.01
2018-04-07T16:52:07.770Z,100237.47
2018-04-07T16:54:36.267Z,100237.39
2018-04-07T16:57:04.701Z,100240.02
2018-04-07T16:59:33.088Z,100238.94
2018-04-07T17:02:01.476Z,100252.88
2018-04-07T17:04:29.862Z,100255.13
2018-04-07T17:06:58.274Z,100255.09
2018-04-07T17:09:26.703Z,100260.05
2018-04-07T17:11:55.131Z,100262.45
2018-04-07T17:14:23.541Z,100259.91
2018-04-07T17:16:52.707Z,100265.70
2018-04-07T17:19:21.101Z,100265.31
2018-04-07T17:21:49.642Z,100262.70
2018-04-07T17:24:18.095Z,100270.92
2018-04-07T17:26:47.244Z,100267.99
2018-04-07T17:29:15.639Z,100272.23
2018-04-07T17:31:44.017Z,100268.37
2018-04-07T17:34:12.446Z,100263.93
2018-04-07T17:36:41.603Z,100267.67
2018-04-07T17:39:09.984Z,100274.63
2018-04-07T17:41:38.375Z,100275.38
2018-04-07T17:44:07.585Z,100268.59
2018-04-07T17:46:35.964Z,100270.10
2018-04-07T17:49:06.239Z,100273.30
2018-04-07T17:51:32.871Z,100269.98
2018-04-07T17:54:01.258Z,100272.87
2018-04-07T17:56:29.776Z,100271.80
2018-04-07T17:58:58.158Z,100271.45
2018-04-07T18:01:27.608Z,100271.25
2018-04-07T18:03:55.999Z,100278.09
2018-04-07T18:06:24.403Z,100274.69
2018-04-07T18:08:52.862Z,100274.69
2018-04-07T18:11:21.259Z,100270.56
2018-04-07T18:13:49.705Z,100274.29
2018-04-07T18:16:18.104Z,100280.45
2018-04-07T18:18:46.559Z,100287.37
2018-04-07T18:21:15.012Z,100290.41
2018-04-07T18:23:44.205Z,100292.13
2018-04-07T18:26:12.656Z,100292.09
2018-04-07T18:28:41.076Z,100293.08
2018-04-07T18:31:09.543Z,100296.41
2018-04-07T18:33:37.919Z,100296.65
2018-04-07T18:36:06.342Z,100294.02
2018-04-07T18:38:35.518Z,100293.20
2018-04-07T18:41:03.958Z,100293.98
2018-04-07T18:43:34.251Z,100293.44
2018-04-07T18:46:03.411Z,100296.56
2018-04-07T18:48:31.954Z,100298.80
2018-04-07T18:51:00.334Z,100305.97
2018-04-07T18:53:28.753Z,100318.87
2018-04-07T18:55:57.197Z,100320.67
2018-04-07T18:58:25.590Z,100318.34
2018-04-07T19:00:53.979Z,100322.95
2018-04-07T19:03:22.495Z,100327.23
2018-04-07T19:05:50.892Z,100330.64
2018-04-07T19:08:20.062Z,100331.21
2018-04-07T19:10:48.446Z,100341.33
2018-04-07T19:13:16.841Z,100331.22
2018-04-07T19:15:46.008Z,100343.30
2018-04-07T19:18:14.422Z,100343.82
2018-04-07T19:20:42.807Z,100351.51
2018-04-07T19:23:11.216Z,100351.76
2018-04-07T19:25:40.382Z,100352.45
2018-04-07T19:28:08.784Z,100357.11
2018-04-07T19:30:37.185Z,100356.09
2018-04-07T19:33:06.337Z,100351.67
2018-04-07T19:35:34.736Z,100356.50
2018-04-07T19:38:03.893Z,100355.97
2018-04-07T19:40:32.289Z,100357.59
2018-04-07T19:43:00.679Z,100360.11
2018-04-07T19:45:30.343Z,100362.67
2018-04-07T19:47:58.734Z,100366.42
2018-04-07T19:50:27.142Z,100373.67
2018-04-07T19:52:55.546Z,100368.20
2018-04-07T19:55:23.924Z,100366.50
2018-04-07T19:57:52.932Z,100372.58
2018-04-07T20:00:21.560Z,100372.94
2018-04-07T20:02:50.036Z,100372.84
2018-04-07T20:05:18.434Z,100369.10
2018-04-07T20:07:46.837Z,100368.82
2018-04-07T20:10:15.259Z,100365.17
2018-04-07T20:12:45.034Z,100367.64
2018-04-07T20:15:13.493Z,100371.53
2018-04-07T20:17:41.890Z,100369.64
2018-04-07T20:20:10.334Z,100375.52
2018-04-07T20:22:38.725Z,100374.89
2018-04-07T20:25:07.176Z,100368.76
2018-04-07T20:27:36.333Z,100369.34
2018-04-07T20:30:04.835Z,100367.13
2018-04-07T20:32:33.248Z,100368.41
2018-04-07T20:35:02.386Z,100363.86
2018-04-07T20:37:30.788Z,100359.58
2018-04-07T20:40:00.018Z,100368.80
2018-04-07T20:42:28.427Z,100365.72
2018-04-07T20:44:56.817Z,100374.45
2018-04-07T20:47:25.262Z,100376.78
2018-04-07T20:49:54.465Z,100367.70
2018-04-07T20:52:23.674Z,100381.04
2018-04-07T20:54:52.981Z,100373.13
2018-04-07T20:57:22.189Z,100370.48
2018-04-07T20:59:50.580Z,100367.25
2018-04-07T21:02:19.029Z,100370.69
2018-04-07T21:04:48.334Z,100365.20
2018-04-07T21:07:17.543Z,100360.56
2018-04-07T21:09:46.734Z,100359.85
2018-04-07T21:12:16.053Z,100353.72
2018-04-07T21:14:45.431Z,100361.72
2018-04-07T21:17:13.867Z,100358.53
2018-04-07T21:19:42.275Z,100355.08
2018-04-07T21:22:10.725Z,100353.41
2018-04-07T21:24:39.126Z,100353.83
2018-04-07T21:27:07.556Z,100349.80
2018-04-07T21:29:36.715Z,100355.91
2018-04-07T21:32:05.143Z,100350.13
2018-04-07T21:34:34.308Z,100351.58
2018-04-07T21:37:02.786Z,100350.76
2018-04-07T21:39:31.190Z,100347.00
2018-04-07T21:42:00.346Z,100351.55
2018-04-07T21:44:28.752Z,100352.20
2018-04-07T21:46:58.044Z,100351.51
2018-04-07T21:49:26.440Z,100350.39
2018-04-07T21:51:55.639Z,100352.11
2018-04-07T21:54:24.039Z,100349.05
2018-04-07T21:56:53.217Z,100349.56
2018-04-07T21:59:21.631Z,100355.40
2018-04-07T22:01:50.818Z,100350.17
2018-04-07T22:04:19.972Z,100348.95
2018-04-07T22:06:48.375Z,100344.66
2018-04-07T22:09:16.782Z,100349.40
2018-04-07T22:11:45.196Z,100349.06
2018-04-07T22:14:13.645Z,100350.80
2018-04-07T22:16:42.842Z,100351.19
2018-04-07T22:19:11.219Z,100353.68
2018-04-07T22:21:39.688Z,100345.27
2018-04-07T22:24:08.103Z,100344.88
2018-04-07T22:26:36.522Z,100342.22
2018-04-07T22:29:04.944Z,100339.25
2018-04-07T22:31:34.839Z,100338.95
2018-04-07T22:34:03.330Z,100342.04
2018-04-07T22:36:32.196Z,100338.14
2018-04-07T22:39:00.579Z,100338.31
2018-04-07T22:41:29.022Z,100334.32
2018-04-07T22:43:58.257Z,100338.23
2018-04-07T22:46:26.639Z,100330.80
2018-04-07T22:48:55.104Z,100334.57
2018-04-07T22:51:23.608Z,100335.37
2018-04-07T22:53:52.083Z,100329.59
2018-04-07T22:56:20.484Z,100330.79
2018-04-07T22:58:48.870Z,100328.22
2018-04-07T23:01:17.280Z,100326.87
2018-04-07T23:03:45.824Z,100331.72
2018-04-07T23:06:14.245Z,100332.57
2018-04-07T23:08:42.690Z,100325.23
2018-04-07T23:11:11.100Z,100324.27
2018-04-07T23:13:39.486Z,100324.30
2018-04-07T23:16:08.619Z,100328.36
2018-04-07T23:18:36.997Z,100330.25
2018-04-07T23:21:05.380Z,100328.70
2018-04-07T23:23:33.774Z,100329.04
2018-04-07T23:26:02.235Z,100326.45
2018-04-07T23:28:30.656Z,100328.19
2018-04-07T23:31:00.014Z,100323.37
2018-04-07T23:33:29.170Z,100319.08
2018-04-07T23:35:57.550Z,100319.97
2018-04-07T23:38:25.927Z,100316.48
2018-04-07T23:40:54.323Z,100323.97
2018-04-07T23:43:22.742Z,100324.97
2018-04-07T23:45:51.915Z,100317.23
2018-04-07T23:48:20.330Z,100318.19
2018-04-07T23:50:49.062Z,100316.91
2018-04-07T23:53:17.487Z,100320.39
2018-04-07T23:55:45.899Z,100317.24
2018-04-07T23:58:14.285Z,100312.46
